sensor_id;sensor_type;location;lat;lon;timestamp;temperature;humidity
16517;DHT22;8371;52.272;9.746;2023-08-08T00:00:40;14.60;70.10
16517;DHT22;8371;52.272;9.746;2023-08-08T00:03:05;14.50;70.30
16517;DHT22;8371;52.272;9.746;2023-08-08T00:05:31;14.50;70.10
16517;DHT22;8371;52.272;9.746;2023-08-08T00:07:57;14.50;70.10
16517;DHT22;8371;52.272;9.746;2023-08-08T00:10:22;14.50;70.20
16517;DHT22;8371;52.272;9.746;2023-08-08T00:12:48;14.50;70.20
16517;DHT22;8371;52.272;9.746;2023-08-08T00:15:15;14.50;70.30
16517;DHT22;8371;52.272;9.746;2023-08-08T00:17:41;14.50;70.20
16517;DHT22;8371;52.272;9.746;2023-08-08T00:20:07;14.50;70.40
16517;DHT22;8371;52.272;9.746;2023-08-08T00:22:33;14.40;70.90
16517;DHT22;8371;52.272;9.746;2023-08-08T00:24:59;14.40;70.80
16517;DHT22;8371;52.272;9.746;2023-08-08T00:27:25;14.40;71.00
16517;DHT22;8371;52.272;9.746;2023-08-08T00:29:50;14.40;71.20
16517;DHT22;8371;52.272;9.746;2023-08-08T00:32:18;14.40;71.20
16517;DHT22;8371;52.272;9.746;2023-08-08T00:34:43;14.40;71.00
16517;DHT22;8371;52.272;9.746;2023-08-08T00:37:09;14.40;71.30
16517;DHT22;8371;52.272;9.746;2023-08-08T00:39:35;14.40;71.20
16517;DHT22;8371;52.272;9.746;2023-08-08T00:42:01;14.40;71.30
16517;DHT22;8371;52.272;9.746;2023-08-08T00:44:26;14.40;71.40
16517;DHT22;8371;52.272;9.746;2023-08-08T00:46:52;14.40;71.40
16517;DHT22;8371;52.272;9.746;2023-08-08T00:49:18;14.30;71.50
16517;DHT22;8371;52.272;9.746;2023-08-08T00:51:44;14.30;71.40
16517;DHT22;8371;52.272;9.746;2023-08-08T00:54:10;14.30;71.70
16517;DHT22;8371;52.272;9.746;2023-08-08T00:56:37;14.30;71.80
16517;DHT22;8371;52.272;9.746;2023-08-08T00:59:03;14.30;72.50
16517;DHT22;8371;52.272;9.746;2023-08-08T01:01:29;14.30;71.80
16517;DHT22;8371;52.272;9.746;2023-08-08T01:03:55;14.30;71.60
16517;DHT22;8371;52.272;9.746;2023-08-08T01:06:23;14.30;71.70
16517;DHT22;8371;52.272;9.746;2023-08-08T01:09:05;14.30;72.30
16517;DHT22;8371;52.272;9.746;2023-08-08T01:11:33;14.30;72.30
16517;DHT22;8371;52.272;9.746;2023-08-08T01:14:01;14.30;72.40
16517;DHT22;8371;52.272;9.746;2023-08-08T01:16:28;14.30;72.30
16517;DHT22;8371;52.272;9.746;2023-08-08T01:18:55;14.30;72.50
16517;DHT22;8371;52.272;9.746;2023-08-08T01:21:21;14.30;72.40
16517;DHT22;8371;52.272;9.746;2023-08-08T01:24:01;14.30;73.20
16517;DHT22;8371;52.272;9.746;2023-08-08T01:26:25;14.30;72.60
16517;DHT22;8371;52.272;9.746;2023-08-08T01:28:55;14.40;72.60
16517;DHT22;8371;52.272;9.746;2023-08-08T01:31:20;14.40;72.80
16517;DHT22;8371;52.272;9.746;2023-08-08T01:33:47;14.40;72.90
16517;DHT22;8371;52.272;9.746;2023-08-08T01:36:28;14.50;72.90
16517;DHT22;8371;52.272;9.746;2023-08-08T01:38:56;14.50;72.90
16517;DHT22;8371;52.272;9.746;2023-08-08T01:41:25;14.60;73.00
16517;DHT22;8371;52.272;9.746;2023-08-08T01:43:52;14.60;73.00
16517;DHT22;8371;52.272;9.746;2023-08-08T01:46:18;14.70;73.00
16517;DHT22;8371;52.272;9.746;2023-08-08T01:48:45;14.70;72.90
16517;DHT22;8371;52.272;9.746;2023-08-08T01:51:12;14.70;72.80
16517;DHT22;8371;52.272;9.746;2023-08-08T01:53:38;14.80;73.10
16517;DHT22;8371;52.272;9.746;2023-08-08T01:56:03;14.80;73.10
16517;DHT22;8371;52.272;9.746;2023-08-08T01:58:29;14.80;73.10
16517;DHT22;8371;52.272;9.746;2023-08-08T02:00:55;14.80;73.10
16517;DHT22;8371;52.272;9.746;2023-08-08T02:03:20;14.80;73.10
16517;DHT22;8371;52.272;9.746;2023-08-08T02:05:46;14.80;73.00
16517;DHT22;8371;52.272;9.746;2023-08-08T02:08:12;14.80;73.00
16517;DHT22;8371;52.272;9.746;2023-08-08T02:10:38;14.80;73.10
16517;DHT22;8371;52.272;9.746;2023-08-08T02:13:04;14.80;73.10
16517;DHT22;8371;52.272;9.746;2023-08-08T02:15:29;14.70;73.40
16517;DHT22;8371;52.272;9.746;2023-08-08T02:17:55;14.70;73.50
16517;DHT22;8371;52.272;9.746;2023-08-08T02:20:21;14.70;73.30
16517;DHT22;8371;52.272;9.746;2023-08-08T02:22:46;14.70;73.60
16517;DHT22;8371;52.272;9.746;2023-08-08T02:25:12;14.70;74.00
16517;DHT22;8371;52.272;9.746;2023-08-08T02:27:38;14.70;74.00
16517;DHT22;8371;52.272;9.746;2023-08-08T02:30:04;14.70;74.20
16517;DHT22;8371;52.272;9.746;2023-08-08T02:32:30;14.70;74.40
16517;DHT22;8371;52.272;9.746;2023-08-08T02:34:56;14.70;74.20
16517;DHT22;8371;52.272;9.746;2023-08-08T02:37:21;14.70;74.30
16517;DHT22;8371;52.272;9.746;2023-08-08T02:39:47;14.70;74.40
16517;DHT22;8371;52.272;9.746;2023-08-08T02:42:13;14.80;74.70
16517;DHT22;8371;52.272;9.746;2023-08-08T02:44:39;14.80;74.40
16517;DHT22;8371;52.272;9.746;2023-08-08T02:47:04;14.80;74.50
16517;DHT22;8371;52.272;9.746;2023-08-08T02:49:30;14.80;74.70
16517;DHT22;8371;52.272;9.746;2023-08-08T02:51:56;14.90;74.80
16517;DHT22;8371;52.272;9.746;2023-08-08T02:54:21;14.90;74.70
16517;DHT22;8371;52.272;9.746;2023-08-08T02:56:47;14.90;75.20
16517;DHT22;8371;52.272;9.746;2023-08-08T02:59:13;15.10;75.00
16517;DHT22;8371;52.272;9.746;2023-08-08T03:01:38;15.10;74.80
16517;DHT22;8371;52.272;9.746;2023-08-08T03:04:05;15.10;75.40
16517;DHT22;8371;52.272;9.746;2023-08-08T03:06:31;15.20;75.00
16517;DHT22;8371;52.272;9.746;2023-08-08T03:08:57;15.20;75.00
16517;DHT22;8371;52.272;9.746;2023-08-08T03:11:23;15.20;74.70
16517;DHT22;8371;52.272;9.746;2023-08-08T03:13:48;15.30;74.80
16517;DHT22;8371;52.272;9.746;2023-08-08T03:16:14;15.30;76.00
16517;DHT22;8371;52.272;9.746;2023-08-08T03:18:40;15.30;75.20
16517;DHT22;8371;52.272;9.746;2023-08-08T03:21:06;15.40;75.30
16517;DHT22;8371;52.272;9.746;2023-08-08T03:23:32;15.40;75.30
16517;DHT22;8371;52.272;9.746;2023-08-08T03:25:57;15.40;75.30
16517;DHT22;8371;52.272;9.746;2023-08-08T03:28:23;15.40;75.20
16517;DHT22;8371;52.272;9.746;2023-08-08T03:30:49;15.50;75.10
16517;DHT22;8371;52.272;9.746;2023-08-08T03:33:14;15.50;75.20
16517;DHT22;8371;52.272;9.746;2023-08-08T03:35:40;15.50;75.40
16517;DHT22;8371;52.272;9.746;2023-08-08T03:38:06;15.60;75.40
16517;DHT22;8371;52.272;9.746;2023-08-08T03:40:33;15.60;75.20
16517;DHT22;8371;52.272;9.746;2023-08-08T03:42:58;15.60;75.20
16517;DHT22;8371;52.272;9.746;2023-08-08T03:45:44;15.60;75.30
16517;DHT22;8371;52.272;9.746;2023-08-08T03:48:22;15.80;75.30
16517;DHT22;8371;52.272;9.746;2023-08-08T03:50:57;15.70;75.30
16517;DHT22;8371;52.272;9.746;2023-08-08T03:53:25;15.70;74.90
16517;DHT22;8371;52.272;9.746;2023-08-08T03:55:50;15.70;75.10
16517;DHT22;8371;52.272;9.746;2023-08-08T03:58:16;15.70;75.00
16517;DHT22;8371;52.272;9.746;2023-08-08T04:00:42;15.70;75.00
16517;DHT22;8371;52.272;9.746;2023-08-08T04:03:10;15.70;74.80
16517;DHT22;8371;52.272;9.746;2023-08-08T04:05:36;15.70;74.90
16517;DHT22;8371;52.272;9.746;2023-08-08T04:08:01;15.70;75.10
16517;DHT22;8371;52.272;9.746;2023-08-08T04:10:27;15.70;75.20
16517;DHT22;8371;52.272;9.746;2023-08-08T04:12:53;15.60;75.00
16517;DHT22;8371;52.272;9.746;2023-08-08T04:15:18;15.70;75.20
16517;DHT22;8371;52.272;9.746;2023-08-08T04:17:44;15.70;75.40
16517;DHT22;8371;52.272;9.746;2023-08-08T04:20:11;15.70;75.40
16517;DHT22;8371;52.272;9.746;2023-08-08T04:22:37;15.70;75.40
16517;DHT22;8371;52.272;9.746;2023-08-08T04:25:04;15.70;75.40
16517;DHT22;8371;52.272;9.746;2023-08-08T04:27:30;15.70;75.50
16517;DHT22;8371;52.272;9.746;2023-08-08T04:29:55;15.70;75.90
16517;DHT22;8371;52.272;9.746;2023-08-08T04:32:21;15.70;75.50
16517;DHT22;8371;52.272;9.746;2023-08-08T04:34:47;15.70;75.60
16517;DHT22;8371;52.272;9.746;2023-08-08T04:37:12;15.70;75.50
16517;DHT22;8371;52.272;9.746;2023-08-08T04:39:38;15.80;75.70
16517;DHT22;8371;52.272;9.746;2023-08-08T04:42:04;15.80;75.80
16517;DHT22;8371;52.272;9.746;2023-08-08T04:44:30;15.80;75.80
16517;DHT22;8371;52.272;9.746;2023-08-08T04:46:56;15.80;76.00
16517;DHT22;8371;52.272;9.746;2023-08-08T04:49:21;15.80;75.90
16517;DHT22;8371;52.272;9.746;2023-08-08T04:51:47;15.90;75.80
16517;DHT22;8371;52.272;9.746;2023-08-08T04:54:13;15.90;75.80
16517;DHT22;8371;52.272;9.746;2023-08-08T04:56:38;15.90;75.90
16517;DHT22;8371;52.272;9.746;2023-08-08T04:59:04;16.00;76.10
16517;DHT22;8371;52.272;9.746;2023-08-08T05:01:30;16.00;75.80
16517;DHT22;8371;52.272;9.746;2023-08-08T05:03:55;16.10;76.00
16517;DHT22;8371;52.272;9.746;2023-08-08T05:06:21;16.10;75.70
16517;DHT22;8371;52.272;9.746;2023-08-08T05:08:49;16.10;75.90
16517;DHT22;8371;52.272;9.746;2023-08-08T05:11:15;16.20;76.00
16517;DHT22;8371;52.272;9.746;2023-08-08T05:13:41;16.20;75.90
16517;DHT22;8371;52.272;9.746;2023-08-08T05:16:08;16.30;76.10
16517;DHT22;8371;52.272;9.746;2023-08-08T05:18:34;16.30;75.80
16517;DHT22;8371;52.272;9.746;2023-08-08T05:21:00;16.30;75.80
16517;DHT22;8371;52.272;9.746;2023-08-08T05:23:25;16.40;75.80
16517;DHT22;8371;52.272;9.746;2023-08-08T05:25:51;16.50;75.80
16517;DHT22;8371;52.272;9.746;2023-08-08T05:28:16;16.50;75.90
16517;DHT22;8371;52.272;9.746;2023-08-08T05:30:42;16.50;75.80
16517;DHT22;8371;52.272;9.746;2023-08-08T05:33:08;16.60;76.50
16517;DHT22;8371;52.272;9.746;2023-08-08T05:35:34;16.60;75.90
16517;DHT22;8371;52.272;9.746;2023-08-08T05:38:00;16.70;75.80
16517;DHT22;8371;52.272;9.746;2023-08-08T05:40:25;16.70;76.60
16517;DHT22;8371;52.272;9.746;2023-08-08T05:42:51;16.70;75.60
16517;DHT22;8371;52.272;9.746;2023-08-08T05:45:17;16.80;75.70
16517;DHT22;8371;52.272;9.746;2023-08-08T05:47:42;16.90;75.70
16517;DHT22;8371;52.272;9.746;2023-08-08T05:50:08;16.90;75.80
16517;DHT22;8371;52.272;9.746;2023-08-08T05:52:34;16.90;75.80
16517;DHT22;8371;52.272;9.746;2023-08-08T05:55:00;17.00;75.70
16517;DHT22;8371;52.272;9.746;2023-08-08T05:57:26;17.10;75.80
16517;DHT22;8371;52.272;9.746;2023-08-08T05:59:52;17.10;75.70
16517;DHT22;8371;52.272;9.746;2023-08-08T06:02:18;17.20;75.60
16517;DHT22;8371;52.272;9.746;2023-08-08T06:04:43;17.30;75.70
16517;DHT22;8371;52.272;9.746;2023-08-08T06:07:09;17.30;75.50
16517;DHT22;8371;52.272;9.746;2023-08-08T06:09:36;17.40;75.50
16517;DHT22;8371;52.272;9.746;2023-08-08T06:12:03;17.50;75.50
16517;DHT22;8371;52.272;9.746;2023-08-08T06:14:30;17.50;75.50
16517;DHT22;8371;52.272;9.746;2023-08-08T06:16:56;17.60;75.20
16517;DHT22;8371;52.272;9.746;2023-08-08T06:19:22;17.70;75.30
16517;DHT22;8371;52.272;9.746;2023-08-08T06:21:47;17.70;75.00
16517;DHT22;8371;52.272;9.746;2023-08-08T06:24:14;17.70;75.70
16517;DHT22;8371;52.272;9.746;2023-08-08T06:26:40;17.80;74.80
16517;DHT22;8371;52.272;9.746;2023-08-08T06:29:05;17.80;74.70
16517;DHT22;8371;52.272;9.746;2023-08-08T06:31:31;17.80;74.80
16517;DHT22;8371;52.272;9.746;2023-08-08T06:33:57;17.90;75.10
16517;DHT22;8371;52.272;9.746;2023-08-08T06:36:22;17.90;75.10
16517;DHT22;8371;52.272;9.746;2023-08-08T06:38:48;18.00;75.30
16517;DHT22;8371;52.272;9.746;2023-08-08T06:41:14;18.10;75.20
16517;DHT22;8371;52.272;9.746;2023-08-08T06:43:40;18.20;76.00
16517;DHT22;8371;52.272;9.746;2023-08-08T06:46:05;18.30;75.20
16517;DHT22;8371;52.272;9.746;2023-08-08T06:48:31;18.40;76.00
16517;DHT22;8371;52.272;9.746;2023-08-08T06:50:57;18.40;75.20
16517;DHT22;8371;52.272;9.746;2023-08-08T06:53:23;18.60;75.40
16517;DHT22;8371;52.272;9.746;2023-08-08T06:55:48;18.70;75.20
16517;DHT22;8371;52.272;9.746;2023-08-08T06:58:14;18.70;75.10
16517;DHT22;8371;52.272;9.746;2023-08-08T07:00:40;19.00;75.20
16517;DHT22;8371;52.272;9.746;2023-08-08T07:03:05;19.20;75.00
16517;DHT22;8371;52.272;9.746;2023-08-08T07:05:32;19.30;74.80
16517;DHT22;8371;52.272;9.746;2023-08-08T07:07:57;19.50;74.80
16517;DHT22;8371;52.272;9.746;2023-08-08T07:10:23;19.70;74.50
16517;DHT22;8371;52.272;9.746;2023-08-08T07:12:49;19.80;74.30
16517;DHT22;8371;52.272;9.746;2023-08-08T07:15:15;20.00;74.20
16517;DHT22;8371;52.272;9.746;2023-08-08T07:17:40;20.10;73.70
16517;DHT22;8371;52.272;9.746;2023-08-08T07:20:06;20.30;73.30
16517;DHT22;8371;52.272;9.746;2023-08-08T07:22:33;20.40;72.90
16517;DHT22;8371;52.272;9.746;2023-08-08T07:24:59;20.60;73.10
16517;DHT22;8371;52.272;9.746;2023-08-08T07:27:26;20.70;72.90
16517;DHT22;8371;52.272;9.746;2023-08-08T07:29:52;20.80;72.70
16517;DHT22;8371;52.272;9.746;2023-08-08T07:32:18;20.90;72.30
16517;DHT22;8371;52.272;9.746;2023-08-08T07:34:43;21.10;71.50
16517;DHT22;8371;52.272;9.746;2023-08-08T07:37:09;21.20;70.70
16517;DHT22;8371;52.272;9.746;2023-08-08T07:39:35;21.30;71.10
16517;DHT22;8371;52.272;9.746;2023-08-08T07:42:00;21.30;70.60
16517;DHT22;8371;52.272;9.746;2023-08-08T07:44:26;21.40;70.00
16517;DHT22;8371;52.272;9.746;2023-08-08T07:46:52;21.50;70.00
16517;DHT22;8371;52.272;9.746;2023-08-08T07:49:17;21.50;69.70
16517;DHT22;8371;52.272;9.746;2023-08-08T07:51:43;21.60;69.70
16517;DHT22;8371;52.272;9.746;2023-08-08T07:54:09;21.60;69.60
16517;DHT22;8371;52.272;9.746;2023-08-08T07:56:36;21.70;68.80
16517;DHT22;8371;52.272;9.746;2023-08-08T07:59:02;21.80;69.00
16517;DHT22;8371;52.272;9.746;2023-08-08T08:01:29;21.80;68.30
16517;DHT22;8371;52.272;9.746;2023-08-08T08:03:54;22.00;68.20
16517;DHT22;8371;52.272;9.746;2023-08-08T08:06:20;22.00;66.90
16517;DHT22;8371;52.272;9.746;2023-08-08T08:08:46;22.10;67.50
16517;DHT22;8371;52.272;9.746;2023-08-08T08:11:11;22.10;66.90
16517;DHT22;8371;52.272;9.746;2023-08-08T08:13:39;22.20;67.00
16517;DHT22;8371;52.272;9.746;2023-08-08T08:16:05;22.30;66.90
16517;DHT22;8371;52.272;9.746;2023-08-08T08:18:31;22.40;66.60
16517;DHT22;8371;52.272;9.746;2023-08-08T08:20:58;22.50;66.60
16517;DHT22;8371;52.272;9.746;2023-08-08T08:23:25;22.50;65.20
16517;DHT22;8371;52.272;9.746;2023-08-08T08:25:50;22.60;65.80
16517;DHT22;8371;52.272;9.746;2023-08-08T08:28:16;22.70;64.50
16517;DHT22;8371;52.272;9.746;2023-08-08T08:30:43;22.70;64.90
16517;DHT22;8371;52.272;9.746;2023-08-08T08:33:09;22.80;63.80
16517;DHT22;8371;52.272;9.746;2023-08-08T08:35:35;22.80;64.00
16517;DHT22;8371;52.272;9.746;2023-08-08T08:38:02;22.80;63.80
16517;DHT22;8371;52.272;9.746;2023-08-08T08:40:28;22.80;63.90
16517;DHT22;8371;52.272;9.746;2023-08-08T08:42:54;22.90;63.80
16517;DHT22;8371;52.272;9.746;2023-08-08T08:45:20;22.90;63.60
16517;DHT22;8371;52.272;9.746;2023-08-08T08:47:47;23.00;63.90
16517;DHT22;8371;52.272;9.746;2023-08-08T08:50:18;23.10;63.20
16517;DHT22;8371;52.272;9.746;2023-08-08T08:52:43;23.10;63.60
16517;DHT22;8371;52.272;9.746;2023-08-08T08:55:09;23.20;63.40
16517;DHT22;8371;52.272;9.746;2023-08-08T08:57:36;23.40;63.30
16517;DHT22;8371;52.272;9.746;2023-08-08T09:00:03;23.40;62.90
16517;DHT22;8371;52.272;9.746;2023-08-08T09:02:31;23.40;62.50
16517;DHT22;8371;52.272;9.746;2023-08-08T09:04:58;23.30;61.30
16517;DHT22;8371;52.272;9.746;2023-08-08T09:07:28;23.10;61.40
16517;DHT22;8371;52.272;9.746;2023-08-08T09:09:55;22.90;61.90
16517;DHT22;8371;52.272;9.746;2023-08-08T09:12:21;22.70;62.40
16517;DHT22;8371;52.272;9.746;2023-08-08T09:14:47;22.50;63.00
16517;DHT22;8371;52.272;9.746;2023-08-08T09:17:14;22.30;63.30
16517;DHT22;8371;52.272;9.746;2023-08-08T09:19:44;22.20;64.00
16517;DHT22;8371;52.272;9.746;2023-08-08T09:22:12;22.10;64.50
16517;DHT22;8371;52.272;9.746;2023-08-08T09:24:39;22.10;65.00
16517;DHT22;8371;52.272;9.746;2023-08-08T09:27:07;22.10;65.20
16517;DHT22;8371;52.272;9.746;2023-08-08T09:29:33;22.20;65.60
16517;DHT22;8371;52.272;9.746;2023-08-08T09:31:59;22.20;65.80
16517;DHT22;8371;52.272;9.746;2023-08-08T09:34:25;22.20;66.30
16517;DHT22;8371;52.272;9.746;2023-08-08T09:36:52;22.40;65.90
16517;DHT22;8371;52.272;9.746;2023-08-08T09:39:18;22.50;65.40
16517;DHT22;8371;52.272;9.746;2023-08-08T09:41:47;22.60;65.20
16517;DHT22;8371;52.272;9.746;2023-08-08T09:44:13;22.80;65.00
16517;DHT22;8371;52.272;9.746;2023-08-08T09:46:39;23.00;64.40
16517;DHT22;8371;52.272;9.746;2023-08-08T09:49:06;23.10;65.00
16517;DHT22;8371;52.272;9.746;2023-08-08T09:51:32;23.30;64.40
16517;DHT22;8371;52.272;9.746;2023-08-08T09:54:00;23.50;64.50
16517;DHT22;8371;52.272;9.746;2023-08-08T09:56:29;23.70;64.10
16517;DHT22;8371;52.272;9.746;2023-08-08T09:58:57;23.80;63.90
16517;DHT22;8371;52.272;9.746;2023-08-08T10:01:24;24.00;63.70
16517;DHT22;8371;52.272;9.746;2023-08-08T10:03:51;24.20;63.60
16517;DHT22;8371;52.272;9.746;2023-08-08T10:06:17;24.40;63.10
16517;DHT22;8371;52.272;9.746;2023-08-08T10:08:45;24.50;62.00
16517;DHT22;8371;52.272;9.746;2023-08-08T10:11:12;24.70;61.10
16517;DHT22;8371;52.272;9.746;2023-08-08T10:13:38;24.80;61.60
16517;DHT22;8371;52.272;9.746;2023-08-08T10:16:09;25.00;60.80
16517;DHT22;8371;52.272;9.746;2023-08-08T10:18:35;25.10;60.60
16517;DHT22;8371;52.272;9.746;2023-08-08T10:21:04;25.20;60.10
16517;DHT22;8371;52.272;9.746;2023-08-08T10:23:37;25.40;59.80
16517;DHT22;8371;52.272;9.746;2023-08-08T10:26:03;25.50;59.80
16517;DHT22;8371;52.272;9.746;2023-08-08T10:28:31;25.60;58.80
16517;DHT22;8371;52.272;9.746;2023-08-08T10:30:59;25.60;58.90
16517;DHT22;8371;52.272;9.746;2023-08-08T10:33:26;25.70;58.70
16517;DHT22;8371;52.272;9.746;2023-08-08T10:36:02;25.60;57.90
16517;DHT22;8371;52.272;9.746;2023-08-08T10:38:39;25.60;57.60
16517;DHT22;8371;52.272;9.746;2023-08-08T10:41:11;25.60;56.90
16517;DHT22;8371;52.272;9.746;2023-08-08T10:43:37;25.40;57.20
16517;DHT22;8371;52.272;9.746;2023-08-08T10:46:04;25.30;57.30
16517;DHT22;8371;52.272;9.746;2023-08-08T10:48:30;25.30;57.80
16517;DHT22;8371;52.272;9.746;2023-08-08T10:50:58;25.30;58.20
16517;DHT22;8371;52.272;9.746;2023-08-08T10:53:28;25.40;58.20
16517;DHT22;8371;52.272;9.746;2023-08-08T10:56:02;25.50;58.40
16517;DHT22;8371;52.272;9.746;2023-08-08T10:58:39;25.60;58.10
16517;DHT22;8371;52.272;9.746;2023-08-08T11:01:02;25.60;57.60
16517;DHT22;8371;52.272;9.746;2023-08-08T11:03:30;25.70;56.90
16517;DHT22;8371;52.272;9.746;2023-08-08T11:05:56;25.60;56.40
16517;DHT22;8371;52.272;9.746;2023-08-08T11:08:22;25.60;54.90
16517;DHT22;8371;52.272;9.746;2023-08-08T11:10:51;25.40;54.60
16517;DHT22;8371;52.272;9.746;2023-08-08T11:13:17;25.20;55.30
16517;DHT22;8371;52.272;9.746;2023-08-08T11:15:43;25.10;55.70
16517;DHT22;8371;52.272;9.746;2023-08-08T11:18:08;24.80;55.80
16517;DHT22;8371;52.272;9.746;2023-08-08T11:20:36;24.70;55.00
16517;DHT22;8371;52.272;9.746;2023-08-08T11:23:02;24.60;56.40
16517;DHT22;8371;52.272;9.746;2023-08-08T11:25:30;24.50;56.40
16517;DHT22;8371;52.272;9.746;2023-08-08T11:27:57;24.40;56.60
16517;DHT22;8371;52.272;9.746;2023-08-08T11:30:26;24.60;57.00
16517;DHT22;8371;52.272;9.746;2023-08-08T11:32:51;24.70;55.90
16517;DHT22;8371;52.272;9.746;2023-08-08T11:35:20;24.80;56.80
16517;DHT22;8371;52.272;9.746;2023-08-08T11:37:46;25.00;56.50
16517;DHT22;8371;52.272;9.746;2023-08-08T11:40:13;25.20;56.00
16517;DHT22;8371;52.272;9.746;2023-08-08T11:42:39;25.40;56.00
16517;DHT22;8371;52.272;9.746;2023-08-08T11:45:08;25.60;56.00
16517;DHT22;8371;52.272;9.746;2023-08-08T11:47:35;25.80;55.60
16517;DHT22;8371;52.272;9.746;2023-08-08T11:50:08;26.00;54.90
16517;DHT22;8371;52.272;9.746;2023-08-08T11:52:42;26.20;54.70
16517;DHT22;8371;52.272;9.746;2023-08-08T11:55:09;26.40;54.00
16517;DHT22;8371;52.272;9.746;2023-08-08T11:57:37;26.40;54.10
16517;DHT22;8371;52.272;9.746;2023-08-08T12:00:08;26.50;53.90
16517;DHT22;8371;52.272;9.746;2023-08-08T12:02:35;26.50;53.70
16517;DHT22;8371;52.272;9.746;2023-08-08T12:05:07;26.60;53.30
16517;DHT22;8371;52.272;9.746;2023-08-08T12:07:35;26.60;52.00
16517;DHT22;8371;52.272;9.746;2023-08-08T12:10:03;26.50;52.70
16517;DHT22;8371;52.272;9.746;2023-08-08T12:12:31;26.40;52.70
16517;DHT22;8371;52.272;9.746;2023-08-08T12:15:08;26.40;52.50
16517;DHT22;8371;52.272;9.746;2023-08-08T12:17:34;26.30;52.40
16517;DHT22;8371;52.272;9.746;2023-08-08T12:20:03;26.20;52.50
16517;DHT22;8371;52.272;9.746;2023-08-08T12:22:31;26.20;52.50
16517;DHT22;8371;52.272;9.746;2023-08-08T12:24:57;26.10;51.90
16517;DHT22;8371;52.272;9.746;2023-08-08T12:27:23;26.00;52.00
16517;DHT22;8371;52.272;9.746;2023-08-08T12:29:49;26.00;52.20
16517;DHT22;8371;52.272;9.746;2023-08-08T12:32:15;25.90;52.50
16517;DHT22;8371;52.272;9.746;2023-08-08T12:34:40;25.80;51.40
16517;DHT22;8371;52.272;9.746;2023-08-08T12:37:06;25.80;51.70
16517;DHT22;8371;52.272;9.746;2023-08-08T12:39:32;25.80;52.10
16517;DHT22;8371;52.272;9.746;2023-08-08T12:41:58;25.70;52.20
16517;DHT22;8371;52.272;9.746;2023-08-08T12:44:23;25.70;52.40
16517;DHT22;8371;52.272;9.746;2023-08-08T12:46:49;25.90;52.30
16517;DHT22;8371;52.272;9.746;2023-08-08T12:49:15;25.90;52.30
16517;DHT22;8371;52.272;9.746;2023-08-08T12:51:41;25.80;51.70
16517;DHT22;8371;52.272;9.746;2023-08-08T12:54:07;25.90;52.20
16517;DHT22;8371;52.272;9.746;2023-08-08T12:56:32;25.90;52.10
16517;DHT22;8371;52.272;9.746;2023-08-08T12:58:58;25.90;52.20
16517;DHT22;8371;52.272;9.746;2023-08-08T13:01:24;26.00;51.90
16517;DHT22;8371;52.272;9.746;2023-08-08T13:03:50;26.00;51.80
16517;DHT22;8371;52.272;9.746;2023-08-08T13:06:16;26.00;50.90
16517;DHT22;8371;52.272;9.746;2023-08-08T13:08:42;25.90;49.70
16517;DHT22;8371;52.272;9.746;2023-08-08T13:11:08;25.70;49.70
16517;DHT22;8371;52.272;9.746;2023-08-08T13:13:33;25.40;49.30
16517;DHT22;8371;52.272;9.746;2023-08-08T13:15:59;25.10;48.80
16517;DHT22;8371;52.272;9.746;2023-08-08T13:18:25;24.70;49.40
16517;DHT22;8371;52.272;9.746;2023-08-08T13:20:50;24.30;49.90
16517;DHT22;8371;52.272;9.746;2023-08-08T13:23:16;24.00;50.50
16517;DHT22;8371;52.272;9.746;2023-08-08T13:25:42;23.80;51.00
16517;DHT22;8371;52.272;9.746;2023-08-08T13:28:08;23.70;51.20
16517;DHT22;8371;52.272;9.746;2023-08-08T13:30:34;23.60;51.80
16517;DHT22;8371;52.272;9.746;2023-08-08T13:33:01;23.60;52.30
16517;DHT22;8371;52.272;9.746;2023-08-08T13:35:27;23.50;52.30
16517;DHT22;8371;52.272;9.746;2023-08-08T13:37:52;23.60;52.30
16517;DHT22;8371;52.272;9.746;2023-08-08T13:40:20;23.50;52.80
16517;DHT22;8371;52.272;9.746;2023-08-08T13:42:45;23.90;53.10
16517;DHT22;8371;52.272;9.746;2023-08-08T13:45:14;23.80;53.20
16517;DHT22;8371;52.272;9.746;2023-08-08T13:47:40;24.00;53.50
16517;DHT22;8371;52.272;9.746;2023-08-08T13:50:06;24.20;53.50
16517;DHT22;8371;52.272;9.746;2023-08-08T13:52:33;24.40;53.70
16517;DHT22;8371;52.272;9.746;2023-08-08T13:54:59;24.70;53.60
16517;DHT22;8371;52.272;9.746;2023-08-08T13:57:25;25.00;53.60
16517;DHT22;8371;52.272;9.746;2023-08-08T13:59:51;25.30;53.60
16517;DHT22;8371;52.272;9.746;2023-08-08T14:02:16;25.70;52.50
16517;DHT22;8371;52.272;9.746;2023-08-08T14:04:44;25.80;51.30
16517;DHT22;8371;52.272;9.746;2023-08-08T14:07:10;25.90;51.00
16517;DHT22;8371;52.272;9.746;2023-08-08T14:09:36;26.00;50.40
16517;DHT22;8371;52.272;9.746;2023-08-08T14:12:02;25.90;50.20
16517;DHT22;8371;52.272;9.746;2023-08-08T14:14:28;25.80;49.40
16517;DHT22;8371;52.272;9.746;2023-08-08T14:16:54;25.70;49.70
16517;DHT22;8371;52.272;9.746;2023-08-08T14:19:20;25.80;50.10
16517;DHT22;8371;52.272;9.746;2023-08-08T14:21:45;25.40;49.80
16517;DHT22;8371;52.272;9.746;2023-08-08T14:24:11;25.30;49.60
16517;DHT22;8371;52.272;9.746;2023-08-08T14:26:37;25.10;49.70
16517;DHT22;8371;52.272;9.746;2023-08-08T14:29:04;25.00;49.80
16517;DHT22;8371;52.272;9.746;2023-08-08T14:31:30;24.90;49.70
16517;DHT22;8371;52.272;9.746;2023-08-08T14:33:55;24.80;49.60
16517;DHT22;8371;52.272;9.746;2023-08-08T14:36:21;24.80;50.10
16517;DHT22;8371;52.272;9.746;2023-08-08T14:38:47;24.70;50.50
16517;DHT22;8371;52.272;9.746;2023-08-08T14:41:12;24.80;49.50
16517;DHT22;8371;52.272;9.746;2023-08-08T14:43:38;24.80;49.40
16517;DHT22;8371;52.272;9.746;2023-08-08T14:46:04;24.80;49.30
16517;DHT22;8371;52.272;9.746;2023-08-08T14:48:29;24.90;49.60
16517;DHT22;8371;52.272;9.746;2023-08-08T14:50:55;24.90;49.70
16517;DHT22;8371;52.272;9.746;2023-08-08T14:53:21;24.80;48.90
16517;DHT22;8371;52.272;9.746;2023-08-08T14:55:47;24.70;49.20
16517;DHT22;8371;52.272;9.746;2023-08-08T14:58:14;24.70;49.10
16517;DHT22;8371;52.272;9.746;2023-08-08T15:00:41;24.60;49.10
16517;DHT22;8371;52.272;9.746;2023-08-08T15:03:07;24.50;49.40
16517;DHT22;8371;52.272;9.746;2023-08-08T15:05:33;24.40;49.50
16517;DHT22;8371;52.272;9.746;2023-08-08T15:07:59;24.30;49.40
16517;DHT22;8371;52.272;9.746;2023-08-08T15:10:25;24.10;49.70
16517;DHT22;8371;52.272;9.746;2023-08-08T15:12:50;23.80;49.60
16517;DHT22;8371;52.272;9.746;2023-08-08T15:15:16;23.40;49.80
16517;DHT22;8371;52.272;9.746;2023-08-08T15:17:44;22.90;50.60
16517;DHT22;8371;52.272;9.746;2023-08-08T15:20:10;22.40;50.80
16517;DHT22;8371;52.272;9.746;2023-08-08T15:22:36;21.90;51.40
16517;DHT22;8371;52.272;9.746;2023-08-08T15:25:03;21.50;52.00
16517;DHT22;8371;52.272;9.746;2023-08-08T15:27:29;21.10;52.70
16517;DHT22;8371;52.272;9.746;2023-08-08T15:29:55;20.80;53.60
16517;DHT22;8371;52.272;9.746;2023-08-08T15:32:21;20.50;53.50
16517;DHT22;8371;52.272;9.746;2023-08-08T15:34:47;20.30;54.20
16517;DHT22;8371;52.272;9.746;2023-08-08T15:37:13;20.10;54.50
16517;DHT22;8371;52.272;9.746;2023-08-08T15:39:39;19.90;55.20